KLDM

Mason County Airport

Ludington, Michigan, USA
METAR KLDM 172115Z AUTO 21009G18KT 10SM BKN050 OVC065 M01/M06 A2990 RMK AO2 T10071062
Observed Flight Rules
Feb-17 @ 21:15 UTC (17 minutes ago) Visual Flight Rules
Wind Visibility Clouds
210° at 9 knots
 Gusting to 18 knots
10 miles
  • Broken at 5,000' AGL
  • Overcast at 6,500' AGL
Temperatures Readings
Current -1°C / 30°F
Dewpoint -6°C / 21°F
Humidity 69%
Altimeter 29.9" Hg
Pressure 1013 hPa
Elevation 197
METAR KLDM 172115Z AUTO 21009G18KT 10SM BKN050 OVC065 M01/M06 A2990 RMK AO2 T10071062
Observed Flight Rules
Feb-17 @ 21:15 UTC
(17 minutes ago)
VFR
Wind Visibility
210° at 9 knots
 Gusting to 18 knots
10 miles
Clouds
  • Broken at 5,000' AGL
  • Overcast at 6,500' AGL
Temperature Dewpoint
-1°C / 30°F -6°C / 21°F
Humidity Altimeter Pressure
69% 29.9" Hg 1013 hPa